createdAt,value
2022-12-11T09:33:20.556Z,1.90
2022-12-11T09:36:01.371Z,1.98
2022-12-11T09:50:34.152Z,4.60
2022-12-11T09:53:33.903Z,5.03
2022-12-11T09:56:36.061Z,4.53
2022-12-11T09:59:35.956Z,4.60
2022-12-11T10:02:25.174Z,4.77
2022-12-11T10:05:27.497Z,5.23
2022-12-11T10:08:17.570Z,4.73
2022-12-11T10:11:01.958Z,5.60
2022-12-11T10:13:53.406Z,5.43
2022-12-11T10:17:00.696Z,5.40
2022-12-11T10:19:33.059Z,5.55
2022-12-11T10:22:04.555Z,5.97
2022-12-11T10:27:40.947Z,5.30
2022-12-11T10:30:18.121Z,4.80
2022-12-11T10:33:20.890Z,4.97
2022-12-11T10:35:58.308Z,5.43
2022-12-11T10:38:38.193Z,5.30
2022-12-11T10:41:17.476Z,5.43
2022-12-11T10:43:51.355Z,5.23
2022-12-11T10:46:25.825Z,5.50
2022-12-11T10:48:59.659Z,6.27
2022-12-11T10:51:30.882Z,5.57
2022-12-11T10:54:24.140Z,5.77
2022-12-11T10:56:56.236Z,5.50
2022-12-11T10:59:38.065Z,6.57
2022-12-11T11:02:23.654Z,6.10
2022-12-11T11:04:57.008Z,5.83
2022-12-11T11:07:30.684Z,7.20
2022-12-11T11:10:11.027Z,6.80
2022-12-11T11:12:45.707Z,6.30
2022-12-11T11:15:26.978Z,6.07
2022-12-11T11:18:12.546Z,6.77
2022-12-11T11:20:47.809Z,7.00
2022-12-11T11:23:21.605Z,6.20
2022-12-11T11:26:07.384Z,6.60
2022-12-11T11:28:48.267Z,7.20
2022-12-11T11:31:21.728Z,5.87
2022-12-11T11:34:03.880Z,7.80
2022-12-11T11:36:37.141Z,6.43
2022-12-11T11:39:27.271Z,8.07
2022-12-11T11:42:06.486Z,6.43
2022-12-11T11:44:42.645Z,7.77
2022-12-11T11:47:27.841Z,7.10
2022-12-11T11:50:17.738Z,6.70
2022-12-11T11:52:57.036Z,6.50
2022-12-11T11:55:39.661Z,5.27
2022-12-11T11:58:22.895Z,5.97
2022-12-11T12:00:55.119Z,5.33
2022-12-11T12:03:29.707Z,6.20
2022-12-11T12:06:28.129Z,5.90
2022-12-11T12:09:17.490Z,6.10
2022-12-11T12:11:52.149Z,6.67
2022-12-11T12:14:52.136Z,6.10
2022-12-11T12:17:55.830Z,5.63
2022-12-11T12:20:39.687Z,6.83
2022-12-11T12:23:36.328Z,6.20
2022-12-11T12:26:14.250Z,6.75
2022-12-11T12:29:07.722Z,6.20
2022-12-11T12:32:18.023Z,6.03
2022-12-11T12:35:04.546Z,5.27
2022-12-11T12:37:46.786Z,6.60
2022-12-11T12:40:34.680Z,6.53
2022-12-11T12:43:26.241Z,5.90
2022-12-11T12:46:03.291Z,5.83
2022-12-11T12:48:34.910Z,6.57
2022-12-11T12:51:06.767Z,6.53
2022-12-11T12:53:38.458Z,5.43
2022-12-11T12:56:12.036Z,5.57
2022-12-11T12:58:45.341Z,5.70
2022-12-11T13:01:22.607Z,6.20
2022-12-11T13:04:02.084Z,6.33
2022-12-11T13:06:37.872Z,7.17
2022-12-11T13:09:14.582Z,6.00
2022-12-11T13:11:50.001Z,6.87
2022-12-11T13:14:27.009Z,6.77
2022-12-11T13:17:06.532Z,6.80
2022-12-11T13:19:42.541Z,7.37
2022-12-11T13:22:16.963Z,5.70
2022-12-11T13:25:16.805Z,5.90
2022-12-11T13:27:49.225Z,6.63
2022-12-11T13:30:24.979Z,6.47
2022-12-11T13:33:06.489Z,6.78
2022-12-11T13:35:39.003Z,5.53
2022-12-11T13:38:20.281Z,7.43
2022-12-11T13:40:55.527Z,6.83
2022-12-11T13:43:29.508Z,8.07
2022-12-11T13:46:03.382Z,6.70
2022-12-11T13:48:38.852Z,6.57
2022-12-11T13:51:17.328Z,7.30
2022-12-11T13:53:49.543Z,8.27
2022-12-11T13:56:22.171Z,8.63
2022-12-11T13:58:53.943Z,7.20
2022-12-11T14:01:30.453Z,6.87
2022-12-11T14:04:08.866Z,8.13
2022-12-11T14:06:40.339Z,6.67
2022-12-11T14:09:18.535Z,7.03
2022-12-11T14:11:56.468Z,7.10
2022-12-11T14:14:53.409Z,7.43
2022-12-11T14:17:28.123Z,6.90
2022-12-11T14:20:03.036Z,10.20
2022-12-11T14:22:34.433Z,7.57
2022-12-11T14:25:20.256Z,7.43
2022-12-11T14:27:54.589Z,6.63
2022-12-11T14:30:32.325Z,7.07
2022-12-11T14:33:05.286Z,7.83
2022-12-11T14:35:40.276Z,6.93
2022-12-11T14:38:26.833Z,6.57
2022-12-11T14:41:06.666Z,6.80
2022-12-11T14:43:45.242Z,6.63
2022-12-11T14:46:20.460Z,7.10
2022-12-11T14:49:01.655Z,8.10
2022-12-11T14:51:38.563Z,7.10
2022-12-11T14:54:37.415Z,7.07
2022-12-11T14:57:18.200Z,8.17
2022-12-11T14:59:53.043Z,9.13
2022-12-11T15:02:26.882Z,9.10
2022-12-11T15:05:20.081Z,7.53
2022-12-11T15:08:26.602Z,8.13
2022-12-11T15:11:13.306Z,9.67
2022-12-11T15:13:55.518Z,13.52
2022-12-11T15:16:31.624Z,15.17
2022-12-11T15:19:03.062Z,13.63
2022-12-11T15:21:36.185Z,13.17
2022-12-11T15:24:23.140Z,10.90
2022-12-11T15:29:36.203Z,9.70
2022-12-11T15:32:14.041Z,9.73
2022-12-11T15:34:49.934Z,11.00
2022-12-11T15:37:25.631Z,10.77
2022-12-11T15:39:59.183Z,8.20
2022-12-11T15:42:42.763Z,7.87
2022-12-11T15:45:25.983Z,9.67
2022-12-11T15:47:59.349Z,9.30
2022-12-11T15:50:30.636Z,9.90
2022-12-11T15:53:02.022Z,9.53
2022-12-11T15:55:34.942Z,10.13
2022-12-11T15:58:12.680Z,9.83
2022-12-11T16:00:44.539Z,11.27
2022-12-11T16:03:18.106Z,12.60
2022-12-11T16:05:51.788Z,10.10
2022-12-11T16:08:23.980Z,9.63
2022-12-11T16:10:55.667Z,10.37
2022-12-11T16:13:26.952Z,10.07
2022-12-11T16:15:58.373Z,10.20
2022-12-11T16:18:29.690Z,8.60
2022-12-11T16:21:06.084Z,10.17
2022-12-11T16:26:09.605Z,10.32
2022-12-11T16:28:41.757Z,10.57
2022-12-11T16:31:14.780Z,9.90
2022-12-11T16:33:46.259Z,11.40
2022-12-11T16:36:19.627Z,9.67
2022-12-11T16:38:53.778Z,10.87
2022-12-11T16:41:25.747Z,12.20
2022-12-11T16:43:57.204Z,13.03
2022-12-11T16:46:28.626Z,11.93
2022-12-11T16:49:00.089Z,11.73
2022-12-11T16:51:31.373Z,13.10
2022-12-11T16:54:03.391Z,13.73
2022-12-11T16:56:36.775Z,13.33
2022-12-11T16:59:08.829Z,12.57
2022-12-11T17:01:40.734Z,10.87
2022-12-11T17:04:12.152Z,11.70
2022-12-11T17:06:43.466Z,11.67
2022-12-11T17:09:14.821Z,11.07
2022-12-11T17:11:46.153Z,11.57
2022-12-11T17:14:17.501Z,13.00
2022-12-11T17:16:48.856Z,14.97
2022-12-11T17:19:23.010Z,15.93
2022-12-11T17:21:55.480Z,13.97
2022-12-11T17:24:27.115Z,14.43
2022-12-11T17:26:59.575Z,16.43
2022-12-11T17:29:31.574Z,15.97
2022-12-11T17:32:03.188Z,15.30
2022-12-11T17:34:38.100Z,14.37
2022-12-11T17:37:10.032Z,15.43
2022-12-11T17:39:41.325Z,14.30
2022-12-11T17:42:12.941Z,14.13
2022-12-11T17:44:45.490Z,14.00
2022-12-11T17:47:16.876Z,15.57
2022-12-11T17:49:48.526Z,13.73
2022-12-11T17:52:19.844Z,15.33
2022-12-11T17:54:52.635Z,17.70
2022-12-11T17:57:23.972Z,16.90
2022-12-11T17:59:56.000Z,15.47
2022-12-11T18:02:35.947Z,14.53
2022-12-11T18:05:07.527Z,13.97
2022-12-11T18:07:38.988Z,18.73
2022-12-11T18:10:10.331Z,17.33
2022-12-11T18:12:41.629Z,17.67
2022-12-11T18:15:13.890Z,15.17
2022-12-11T18:17:46.063Z,15.23
2022-12-11T18:20:17.525Z,12.57
2022-12-11T18:22:49.012Z,14.70
2022-12-11T18:25:20.532Z,13.63
2022-12-11T18:27:52.241Z,15.40
2022-12-11T18:30:24.967Z,13.10
2022-12-11T18:32:56.298Z,15.73
2022-12-11T18:35:29.675Z,12.77
2022-12-11T18:38:01.017Z,14.23
2022-12-11T18:40:32.425Z,15.50
2022-12-11T18:43:03.846Z,16.20
2022-12-11T18:45:35.171Z,16.43
2022-12-11T18:48:06.766Z,17.40
2022-12-11T18:50:38.231Z,17.63
2022-12-11T18:53:09.892Z,17.80
2022-12-11T18:55:43.458Z,14.20
2022-12-11T18:58:20.468Z,16.00
2022-12-11T19:00:52.330Z,16.60
2022-12-11T19:03:23.644Z,23.53
2022-12-11T19:05:54.960Z,31.03
2022-12-11T19:08:26.390Z,28.90
2022-12-11T19:10:57.689Z,26.50
2022-12-11T19:13:29.027Z,25.17
2022-12-11T19:16:00.437Z,21.03
2022-12-11T19:18:31.795Z,18.23
2022-12-11T19:21:09.366Z,17.27
2022-12-11T19:23:41.627Z,16.10
2022-12-11T19:26:15.568Z,15.33
2022-12-11T19:28:48.421Z,17.43
2022-12-11T19:31:22.144Z,16.70
2022-12-11T19:33:54.172Z,15.77
2022-12-11T19:36:27.358Z,16.53
2022-12-11T19:39:01.925Z,16.20
2022-12-11T19:41:33.737Z,18.33
2022-12-11T19:44:05.037Z,17.57
2022-12-11T19:46:36.414Z,19.03
2022-12-11T19:49:07.779Z,19.37
2022-12-11T19:51:40.866Z,21.40
2022-12-11T19:54:14.307Z,24.50
2022-12-11T19:56:45.660Z,22.47
2022-12-11T19:59:17.765Z,21.67
2022-12-11T20:01:49.392Z,19.00
2022-12-11T20:04:21.022Z,19.43
2022-12-11T20:06:52.425Z,18.93
2022-12-11T20:09:24.492Z,18.77
2022-12-11T20:11:56.038Z,19.37
2022-12-11T20:14:27.431Z,21.27
2022-12-11T20:17:12.108Z,20.73
2022-12-11T20:19:44.161Z,20.23
2022-12-11T20:22:15.743Z,20.27
2022-12-11T20:24:47.373Z,19.80
2022-12-11T20:27:19.101Z,17.63
2022-12-11T20:29:50.712Z,19.20
2022-12-11T20:32:22.343Z,19.20
2022-12-11T20:34:57.818Z,15.90
2022-12-11T20:37:29.432Z,14.38
2022-12-11T20:40:01.392Z,13.17
2022-12-11T20:42:33.789Z,12.47
2022-12-11T20:45:05.812Z,15.57
2022-12-11T20:47:37.133Z,14.60
2022-12-11T20:50:10.960Z,12.90
2022-12-11T20:52:42.532Z,13.40
2022-12-11T20:55:14.612Z,12.60
2022-12-11T20:57:46.108Z,12.43
2022-12-11T21:00:17.777Z,12.37
2022-12-11T21:02:51.951Z,13.27
2022-12-11T21:05:23.349Z,13.30
2022-12-11T21:07:55.006Z,14.43
2022-12-11T21:10:26.296Z,13.70
2022-12-11T21:12:57.592Z,15.37
2022-12-11T21:15:29.038Z,14.07
2022-12-11T21:18:00.414Z,14.57
2022-12-11T21:20:32.085Z,15.43
2022-12-11T21:23:03.783Z,14.30
2022-12-11T21:25:37.865Z,14.80
2022-12-11T21:28:09.233Z,14.60
2022-12-11T21:30:41.141Z,13.10
2022-12-11T21:33:12.540Z,13.50
2022-12-11T21:35:43.963Z,12.97
2022-12-11T21:38:15.252Z,11.93
2022-12-11T21:40:46.512Z,11.90
2022-12-11T21:43:17.854Z,11.97
2022-12-11T21:46:01.103Z,11.53
2022-12-11T21:48:33.233Z,11.83
2022-12-11T21:51:16.190Z,12.17
2022-12-11T21:53:47.889Z,11.53
2022-12-11T21:56:21.358Z,11.17
2022-12-11T21:58:54.788Z,11.60
2022-12-11T22:01:31.267Z,11.67
2022-12-11T22:04:03.443Z,11.03
2022-12-11T22:06:35.439Z,10.70
2022-12-11T22:09:06.712Z,12.80
2022-12-11T22:11:38.170Z,11.83
2022-12-11T22:14:13.437Z,12.77
2022-12-11T22:16:45.641Z,13.33
2022-12-11T22:19:16.979Z,14.23
2022-12-11T22:21:48.238Z,13.27
2022-12-11T22:24:19.508Z,13.77
2022-12-11T22:26:50.789Z,13.67
2022-12-11T22:29:22.084Z,14.33
2022-12-11T22:31:54.417Z,11.57
2022-12-11T22:34:25.708Z,12.27
2022-12-11T22:36:57.059Z,13.10
2022-12-11T22:39:28.384Z,10.97
2022-12-11T22:41:59.645Z,11.00
2022-12-11T22:44:30.903Z,11.17
2022-12-11T22:47:02.292Z,11.50
2022-12-11T22:49:33.553Z,11.37
2022-12-11T22:52:04.961Z,11.80
2022-12-11T22:54:40.334Z,10.03
2022-12-11T22:57:11.733Z,11.23
2022-12-11T22:59:42.998Z,12.33
2022-12-11T23:02:14.903Z,12.40
2022-12-11T23:04:46.264Z,12.47
2022-12-11T23:07:17.533Z,10.43
2022-12-11T23:09:48.796Z,11.10
2022-12-11T23:12:20.124Z,11.53
2022-12-11T23:14:51.454Z,10.83
2022-12-11T23:17:22.940Z,11.53
2022-12-11T23:19:54.421Z,11.80
2022-12-11T23:22:25.894Z,12.97
2022-12-11T23:24:57.259Z,11.07
2022-12-11T23:27:28.910Z,10.03
2022-12-11T23:30:00.205Z,10.90
2022-12-11T23:32:31.576Z,10.30
2022-12-11T23:35:02.996Z,10.43
2022-12-11T23:37:34.325Z,11.50
2022-12-11T23:40:06.230Z,10.57
2022-12-11T23:42:37.495Z,9.50
2022-12-11T23:45:09.108Z,9.80
2022-12-11T23:47:40.394Z,10.60
2022-12-11T23:50:11.672Z,11.00
2022-12-11T23:52:42.939Z,12.27
2022-12-11T23:55:14.891Z,11.03
2022-12-11T23:57:46.282Z,10.07
